Time;durP1;ratioP1;P1;durP2;ratioP2;P2;SDS_P1;SDS_P2;PMS_P1;PMS_P2;Temp;Humidity;BMP_temperature;BMP_pressure;BME280_temperature;BME280_humidity;BME280_pressure;Samples;Min_cycle;Max_cycle;Signal;HPM_P1;HPM_P2
2024/02/12 00:00:18;;;;;;;6.77;1.07;;;8.00;99.90;;;;;;5058810;28;20439;-71
2024/02/12 00:02:47;;;;;;;6.80;1.00;;;8.00;99.90;;;;;;5052612;28;20520;-70
2024/02/12 00:05:16;;;;;;;6.30;0.90;;;8.00;99.90;;;;;;5051062;28;20470;-71
2024/02/12 00:07:44;;;;;;;7.77;1.03;;;8.00;99.90;;;;;;5060658;28;20477;-71
2024/02/12 00:10:13;;;;;;;8.63;1.10;;;8.00;99.90;;;;;;5058629;28;21384;-70
2024/02/12 00:12:41;;;;;;;7.13;0.90;;;8.00;99.90;;;;;;5062315;28;20499;-71
2024/02/12 00:15:12;;;;;;;6.70;0.97;;;7.90;99.90;;;;;;5053809;28;20526;-73
2024/02/12 00:17:40;;;;;;;6.60;1.13;;;7.90;99.90;;;;;;5056704;28;20480;-71
2024/02/12 00:20:11;;;;;;;6.70;1.00;;;7.80;99.90;;;;;;5071120;28;21026;-70
2024/02/12 00:22:41;;;;;;;6.90;0.93;;;7.80;99.90;;;;;;5060803;28;20511;-70
2024/02/12 00:25:11;;;;;;;6.33;0.97;;;7.80;99.90;;;;;;5057062;28;20506;-71
2024/02/12 00:27:40;;;;;;;6.60;0.90;;;7.80;99.90;;;;;;5063504;28;20463;-71
2024/02/12 00:30:09;;;;;;;6.33;0.70;;;7.80;99.90;;;;;;5067759;28;20466;-71
2024/02/12 00:32:38;;;;;;;6.30;0.80;;;7.80;99.90;;;;;;5061589;28;20573;-70
2024/02/12 00:35:06;;;;;;;6.50;0.83;;;7.90;99.90;;;;;;5051124;28;20467;-71
2024/02/12 00:37:34;;;;;;;6.67;1.03;;;7.90;99.90;;;;;;5056953;28;21129;-73
2024/02/12 00:40:08;;;;;;;7.80;0.93;;;8.00;99.90;;;;;;5066759;28;20987;-70
2024/02/12 00:42:38;;;;;;;6.60;0.90;;;7.90;99.90;;;;;;5049991;28;20459;-70
2024/02/12 00:45:10;;;;;;;6.80;0.80;;;8.00;99.90;;;;;;5063809;28;20545;-71
2024/02/12 00:47:39;;;;;;;6.40;0.70;;;8.00;99.90;;;;;;5063386;28;20456;-70
2024/02/12 00:50:09;;;;;;;7.60;1.20;;;7.90;99.90;;;;;;5064567;28;20438;-71
2024/02/12 00:52:37;;;;;;;6.30;0.80;;;7.80;99.90;;;;;;5054669;28;20566;-71
2024/02/12 00:55:07;;;;;;;6.20;0.70;;;7.80;99.90;;;;;;5055955;28;20567;-72
2024/02/12 00:57:36;;;;;;;6.00;0.60;;;7.80;99.90;;;;;;5059551;28;20444;-71
2024/02/12 01:00:12;;;;;;;6.50;0.73;;;7.80;99.90;;;;;;5060264;28;20513;-73
2024/02/12 01:02:42;;;;;;;6.13;0.70;;;7.70;99.90;;;;;;5060183;28;20468;-71
2024/02/12 01:05:10;;;;;;;7.37;0.70;;;7.60;99.90;;;;;;5063363;28;20434;-73
2024/02/12 01:07:40;;;;;;;5.93;0.70;;;7.50;99.90;;;;;;5058181;28;20464;-70
2024/02/12 01:10:09;;;;;;;6.43;1.00;;;7.40;99.90;;;;;;5074569;28;20511;-71
2024/02/12 01:12:39;;;;;;;6.10;0.90;;;7.30;99.90;;;;;;5054236;28;20515;-72
2024/02/12 01:15:09;;;;;;;6.43;0.90;;;7.20;99.90;;;;;;5066334;28;20771;-70
2024/02/12 01:17:38;;;;;;;6.20;0.70;;;7.10;99.90;;;;;;5053629;28;20446;-71
2024/02/12 01:20:18;;;;;;;6.27;0.90;;;7.00;99.90;;;;;;5056106;28;20439;-70
2024/02/12 01:22:48;;;;;;;7.00;0.80;;;7.00;99.90;;;;;;5069611;28;21303;-70
2024/02/12 01:25:17;;;;;;;5.87;0.67;;;7.10;99.90;;;;;;5052501;28;20521;-73
2024/02/12 01:27:45;;;;;;;6.90;0.70;;;7.10;99.90;;;;;;5057449;28;20483;-72
2024/02/12 01:30:15;;;;;;;7.23;0.87;;;7.20;99.90;;;;;;5064278;28;20446;-71
2024/02/12 01:32:43;;;;;;;6.67;0.70;;;7.30;99.90;;;;;;5066827;28;20520;-71
2024/02/12 01:35:12;;;;;;;6.97;0.90;;;7.30;99.90;;;;;;5054305;28;20522;-70
2024/02/12 01:37:42;;;;;;;7.23;0.70;;;7.40;99.90;;;;;;5054241;28;20817;-70
2024/02/12 01:40:11;;;;;;;7.43;0.70;;;7.40;99.90;;;;;;5071994;28;20533;-69
2024/02/12 01:42:39;;;;;;;6.30;0.80;;;7.40;99.90;;;;;;5066205;28;20491;-69
2024/02/12 01:45:13;;;;;;;6.53;0.73;;;7.40;99.90;;;;;;5067528;28;20450;-69
2024/02/12 01:47:46;;;;;;;7.50;0.70;;;7.50;99.90;;;;;;5058737;28;20964;-71
2024/02/12 01:50:15;;;;;;;6.50;0.70;;;7.40;99.90;;;;;;5057721;28;20446;-69
2024/02/12 01:52:48;;;;;;;6.60;0.80;;;7.40;99.90;;;;;;5052144;28;20483;-71
2024/02/12 01:55:20;;;;;;;6.10;0.63;;;7.50;99.90;;;;;;5053812;28;20450;-68
2024/02/12 01:57:50;;;;;;;7.03;0.80;;;7.50;99.90;;;;;;5066656;28;20439;-69
2024/02/12 02:00:21;;;;;;;6.70;0.70;;;7.60;99.90;;;;;;5067751;28;20797;-69
2024/02/12 02:02:51;;;;;;;6.03;0.60;;;7.60;99.90;;;;;;5077875;28;20492;-69
2024/02/12 02:05:19;;;;;;;6.80;1.03;;;7.60;99.90;;;;;;5077627;28;20446;-69
2024/02/12 02:07:52;;;;;;;8.40;0.90;;;7.60;99.90;;;;;;5052290;28;20466;-69
2024/02/12 02:10:23;;;;;;;6.87;0.80;;;7.70;99.90;;;;;;5057282;28;20438;-69
2024/02/12 02:12:53;;;;;;;6.30;0.70;;;7.70;99.90;;;;;;5055779;28;20554;-69
2024/02/12 02:15:21;;;;;;;6.33;0.70;;;7.70;99.90;;;;;;5049141;28;20451;-70
2024/02/12 02:17:49;;;;;;;6.30;0.67;;;7.60;99.90;;;;;;5047111;28;20453;-69
2024/02/12 02:20:31;;;;;;;7.37;0.73;;;7.70;99.90;;;;;;5046592;28;20628;-68
2024/02/12 02:23:01;;;;;;;9.30;1.10;;;7.70;99.90;;;;;;5045931;28;20613;-69
2024/02/12 02:25:33;;;;;;;6.40;0.70;;;7.70;99.90;;;;;;5046423;28;20836;-69
2024/02/12 02:28:01;;;;;;;7.30;0.93;;;7.70;99.90;;;;;;5046931;28;20440;-69
2024/02/12 02:30:29;;;;;;;7.13;0.90;;;7.70;99.90;;;;;;5053014;28;20486;-70
2024/02/12 02:32:57;;;;;;;6.30;0.87;;;7.70;99.90;;;;;;5045101;28;20491;-70
2024/02/12 02:35:25;;;;;;;6.20;0.67;;;7.70;99.90;;;;;;5046017;28;20460;-69
2024/02/12 02:37:54;;;;;;;7.40;0.70;;;7.80;99.90;;;;;;5061708;28;21066;-70
2024/02/12 02:40:22;;;;;;;5.83;0.63;;;7.80;99.90;;;;;;5065741;28;20450;-68
2024/02/12 02:42:52;;;;;;;6.20;0.60;;;7.70;99.90;;;;;;5065084;28;20531;-70
2024/02/12 02:45:21;;;;;;;6.13;0.70;;;7.70;99.90;;;;;;5064328;28;20486;-70
2024/02/12 02:47:53;;;;;;;6.07;0.70;;;7.60;99.90;;;;;;5040680;28;20475;-69
2024/02/12 02:50:21;;;;;;;6.67;0.90;;;7.60;99.90;;;;;;5057026;28;20467;-69
2024/02/12 02:52:50;;;;;;;6.07;0.70;;;7.70;99.90;;;;;;5064301;28;20515;-69
2024/02/12 02:55:17;;;;;;;6.83;1.00;;;7.70;99.90;;;;;;5062917;28;20454;-69
2024/02/12 02:57:45;;;;;;;7.03;0.70;;;7.70;99.90;;;;;;5056301;28;20456;-69
2024/02/12 03:00:16;;;;;;;7.80;0.90;;;7.70;99.90;;;;;;5065791;28;20554;-70
2024/02/12 03:02:44;;;;;;;6.10;0.60;;;7.70;99.90;;;;;;5065445;28;20561;-69
2024/02/12 03:05:14;;;;;;;6.07;0.80;;;7.70;99.90;;;;;;5051007;28;20443;-69
2024/02/12 03:07:43;;;;;;;6.20;0.80;;;7.80;99.90;;;;;;5057532;28;20922;-69
2024/02/12 03:10:12;;;;;;;7.30;0.60;;;7.80;99.90;;;;;;5069043;28;20814;-72
2024/02/12 03:12:41;;;;;;;7.27;1.07;;;7.80;99.90;;;;;;5046046;28;20483;-70
2024/02/12 03:15:11;;;;;;;5.87;0.50;;;7.70;99.90;;;;;;5060789;28;20461;-70
2024/02/12 03:17:42;;;;;;;6.20;0.57;;;7.70;99.90;;;;;;5065785;28;20826;-69
2024/02/12 03:20:12;;;;;;;7.07;0.90;;;7.70;99.90;;;;;;5059390;28;20436;-68
2024/02/12 03:22:42;;;;;;;6.40;0.80;;;7.70;99.90;;;;;;5066555;28;20525;-68
2024/02/12 03:25:11;;;;;;;6.10;0.60;;;7.70;99.90;;;;;;5056787;28;20953;-68
2024/02/12 03:27:40;;;;;;;6.00;0.60;;;7.50;99.90;;;;;;5046256;28;20531;-68
2024/02/12 03:30:10;;;;;;;6.40;0.70;;;7.50;99.90;;;;;;5064308;28;20532;-68
2024/02/12 03:32:38;;;;;;;5.93;0.60;;;7.40;99.90;;;;;;5060784;28;20487;-68
2024/02/12 03:35:09;;;;;;;8.13;0.87;;;7.40;99.90;;;;;;5059106;28;20451;-68
2024/02/12 03:37:37;;;;;;;5.90;0.50;;;7.40;99.90;;;;;;5059439;28;20482;-68
2024/02/12 03:40:10;;;;;;;5.70;0.30;;;7.40;99.90;;;;;;5066714;28;21217;-69
2024/02/12 03:42:38;;;;;;;5.97;0.43;;;7.40;99.90;;;;;;5066282;28;20971;-68
2024/02/12 03:45:07;;;;;;;5.87;0.60;;;7.50;99.90;;;;;;5051852;28;20798;-68
2024/02/12 03:47:39;;;;;;;5.87;0.50;;;7.50;99.90;;;;;;5053698;28;20465;-68
2024/02/12 04:01:13;;;;;;;6.00;0.50;;;7.50;99.90;;;;;;5065224;28;20450;-68
2024/02/12 04:03:41;;;;;;;5.97;0.43;;;7.60;99.90;;;;;;5066198;28;20459;-68
2024/02/12 04:06:12;;;;;;;5.77;0.50;;;7.60;99.90;;;;;;5048293;28;20480;-68
2024/02/12 04:08:41;;;;;;;6.00;0.50;;;7.70;99.90;;;;;;5061376;28;20465;-69
2024/02/12 04:11:10;;;;;;;6.53;0.50;;;7.80;99.90;;;;;;5059912;28;20513;-69
2024/02/12 04:13:38;;;;;;;5.90;0.50;;;7.70;99.90;;;;;;5057483;28;20581;-70
2024/02/12 04:16:09;;;;;;;6.20;0.60;;;7.70;99.90;;;;;;5064987;28;20460;-70
2024/02/12 04:18:37;;;;;;;6.70;0.50;;;7.60;99.90;;;;;;5065823;28;20447;-69
2024/02/12 04:21:08;;;;;;;6.10;0.50;;;7.50;99.90;;;;;;5063341;28;20537;-69
2024/02/12 04:23:38;;;;;;;6.97;0.80;;;7.60;99.90;;;;;;5056760;28;20463;-70
2024/02/12 04:26:08;;;;;;;6.07;0.60;;;7.50;99.90;;;;;;5061611;28;20927;-69
2024/02/12 04:28:39;;;;;;;7.10;0.67;;;7.50;99.90;;;;;;5052991;28;20627;-69
2024/02/12 04:31:09;;;;;;;6.60;1.00;;;7.50;99.90;;;;;;5045145;28;20517;-70
2024/02/12 04:33:38;;;;;;;6.33;0.53;;;7.50;99.90;;;;;;5059067;28;20491;-70
2024/02/12 04:36:08;;;;;;;6.03;0.70;;;7.50;99.90;;;;;;5065998;28;20569;-68
2024/02/12 04:38:38;;;;;;;6.00;0.60;;;7.60;99.90;;;;;;5059021;28;20925;-69
2024/02/12 04:41:06;;;;;;;6.33;0.70;;;7.50;99.90;;;;;;5058028;28;20991;-69
2024/02/12 04:43:36;;;;;;;7.13;0.70;;;7.50;99.90;;;;;;5066316;28;20462;-69
2024/02/12 04:46:04;;;;;;;6.30;0.90;;;7.50;99.90;;;;;;5051871;28;20509;-70
2024/02/12 04:48:32;;;;;;;6.37;0.80;;;7.40;99.90;;;;;;5062913;28;21251;-68
2024/02/12 04:51:01;;;;;;;6.17;0.63;;;7.50;99.90;;;;;;5064877;28;20443;-69
2024/02/12 04:53:29;;;;;;;6.00;0.60;;;7.60;99.90;;;;;;5045901;28;20491;-69
2024/02/12 04:55:58;;;;;;;5.80;0.50;;;7.70;99.90;;;;;;5051956;28;20987;-70
2024/02/12 04:58:27;;;;;;;6.37;0.83;;;7.70;99.90;;;;;;5049870;28;20432;-69
2024/02/12 05:00:55;;;;;;;6.37;0.77;;;7.70;99.90;;;;;;5053947;28;20850;-69
2024/02/12 05:03:23;;;;;;;6.20;0.60;;;7.70;99.90;;;;;;5064370;28;20464;-68
2024/02/12 05:05:51;;;;;;;6.47;0.90;;;7.60;99.90;;;;;;5059939;28;20472;-68
2024/02/12 05:08:19;;;;;;;6.20;0.80;;;7.50;99.90;;;;;;5067210;28;20452;-69
2024/02/12 05:10:49;;;;;;;6.50;0.60;;;7.50;99.90;;;;;;5068493;28;20478;-69
2024/02/12 05:13:18;;;;;;;5.97;0.60;;;7.40;99.90;;;;;;5068877;28;20467;-69
2024/02/12 05:15:47;;;;;;;7.00;0.60;;;7.40;99.90;;;;;;5065350;28;20490;-69
2024/02/12 05:22:33;;;;;;;6.60;0.90;;;7.50;99.90;;;;;;5046317;28;20566;-69
2024/02/12 05:23:49;;;;;;;6.27;0.90;;;7.30;99.90;;;;;;5061108;28;20493;-69
2024/02/12 05:26:18;;;;;;;7.70;0.70;;;7.30;99.90;;;;;;5064305;28;20535;-69
2024/02/12 05:28:48;;;;;;;6.13;0.70;;;7.30;99.90;;;;;;5068787;28;21200;-69
2024/02/12 05:31:16;;;;;;;6.30;0.90;;;7.30;99.90;;;;;;5058416;28;20448;-68
2024/02/12 05:33:45;;;;;;;6.70;0.73;;;7.30;99.90;;;;;;5046885;28;20905;-69
2024/02/12 05:36:17;;;;;;;6.33;0.70;;;7.30;99.90;;;;;;5063465;28;21117;-69
2024/02/12 05:38:45;;;;;;;6.30;0.70;;;7.30;99.90;;;;;;5062316;28;20443;-69
2024/02/12 05:41:13;;;;;;;6.40;0.80;;;7.50;99.90;;;;;;5058016;28;20502;-70
2024/02/12 05:43:42;;;;;;;6.30;0.80;;;7.50;99.90;;;;;;5049042;28;20464;-68
2024/02/12 05:46:12;;;;;;;7.17;0.90;;;7.50;99.90;;;;;;5049862;28;20444;-68
2024/02/12 05:48:40;;;;;;;6.40;0.63;;;7.50;99.90;;;;;;5048008;28;21441;-69
2024/02/12 05:51:10;;;;;;;7.90;1.50;;;7.50;99.90;;;;;;5065931;28;20554;-69
2024/02/12 05:53:38;;;;;;;6.50;0.80;;;7.50;99.90;;;;;;5058752;28;20471;-69
2024/02/12 05:56:06;;;;;;;7.67;1.30;;;7.50;99.90;;;;;;5067233;28;20454;-69
2024/02/12 05:58:35;;;;;;;6.83;1.10;;;7.60;99.90;;;;;;5065207;28;20494;-69
2024/02/12 06:01:03;;;;;;;6.60;0.90;;;7.60;99.90;;;;;;5068514;28;20473;-70
2024/02/12 06:03:32;;;;;;;7.00;1.00;;;7.60;99.90;;;;;;5068736;28;20471;-70
2024/02/12 06:06:01;;;;;;;7.40;1.43;;;7.50;99.90;;;;;;5051387;28;20455;-70
2024/02/12 06:08:29;;;;;;;7.10;1.50;;;7.50;99.90;;;;;;5068124;28;20458;-68
2024/02/12 06:10:57;;;;;;;6.90;1.20;;;7.50;99.90;;;;;;5067812;28;20457;-70
2024/02/12 06:13:25;;;;;;;9.37;1.50;;;7.40;99.90;;;;;;5067327;28;20467;-68
2024/02/12 06:15:53;;;;;;;7.80;1.80;;;7.40;99.90;;;;;;5067458;28;20498;-68
2024/02/12 06:18:21;;;;;;;9.50;2.30;;;7.50;99.90;;;;;;5066156;28;20531;-69
2024/02/12 06:20:51;;;;;;;7.60;1.63;;;7.50;99.90;;;;;;5047180;28;20559;-68
2024/02/12 06:23:19;;;;;;;8.27;2.07;;;7.50;99.90;;;;;;5051230;28;20491;-69
2024/02/12 06:25:47;;;;;;;12.47;2.67;;;7.60;99.90;;;;;;5066739;28;21399;-69
2024/02/12 06:28:15;;;;;;;10.03;2.27;;;7.60;99.90;;;;;;5064947;28;20471;-69
2024/02/12 06:30:43;;;;;;;8.13;1.90;;;7.50;99.90;;;;;;5047411;28;20568;-68
2024/02/12 06:33:11;;;;;;;10.50;2.00;;;7.60;99.90;;;;;;5052366;28;21069;-69
2024/02/12 06:35:39;;;;;;;9.17;2.73;;;7.60;99.90;;;;;;5047804;28;20587;-69
2024/02/12 06:38:09;;;;;;;8.30;2.20;;;7.60;99.90;;;;;;5059926;28;20455;-69
2024/02/12 06:40:37;;;;;;;9.67;2.80;;;7.50;99.90;;;;;;5057210;28;20506;-69
2024/02/12 06:43:05;;;;;;;9.00;3.30;;;7.60;99.90;;;;;;5068241;28;20578;-68
2024/02/12 06:45:36;;;;;;;11.23;3.07;;;7.50;99.90;;;;;;5059911;28;20435;-70
2024/02/12 06:48:05;;;;;;;10.10;3.60;;;7.50;99.90;;;;;;5066990;28;20558;-69
2024/02/12 06:50:33;;;;;;;11.03;3.30;;;7.40;99.90;;;;;;5066763;28;20548;-71
2024/02/12 06:53:01;;;;;;;10.57;3.43;;;7.30;99.90;;;;;;5067030;28;20567;-69
2024/02/12 06:55:31;;;;;;;10.27;3.50;;;7.20;99.90;;;;;;5047741;28;20491;-70
2024/02/12 06:58:00;;;;;;;9.47;3.00;;;7.20;99.90;;;;;;5058422;28;20471;-73
2024/02/12 07:00:28;;;;;;;9.80;3.10;;;7.10;99.90;;;;;;5046757;28;20456;-68
2024/02/12 07:02:56;;;;;;;8.93;3.10;;;7.20;99.90;;;;;;5056181;28;20465;-70
2024/02/12 07:05:25;;;;;;;9.73;3.30;;;7.10;99.90;;;;;;5066836;28;20528;-70
2024/02/12 07:07:55;;;;;;;9.90;3.40;;;7.10;99.90;;;;;;5052261;28;20491;-68
2024/02/12 07:10:24;;;;;;;10.93;3.20;;;7.10;99.90;;;;;;5065893;28;20534;-70
2024/02/12 07:12:53;;;;;;;9.57;3.10;;;7.10;99.90;;;;;;5065695;28;20498;-70
2024/02/12 07:15:21;;;;;;;9.60;3.70;;;7.00;99.90;;;;;;5048489;28;20486;-69
2024/02/12 07:17:49;;;;;;;8.37;2.60;;;7.00;99.90;;;;;;5065164;28;20531;-68
2024/02/12 07:20:19;;;;;;;9.57;3.10;;;7.10;99.90;;;;;;5065422;28;20485;-68
2024/02/12 07:22:47;;;;;;;12.00;2.80;;;7.10;99.90;;;;;;5061035;28;20465;-69
2024/02/12 07:25:15;;;;;;;11.93;3.97;;;7.20;99.90;;;;;;5066179;28;20445;-68
2024/02/12 07:27:43;;;;;;;8.97;2.57;;;7.20;99.90;;;;;;5062188;28;20464;-68
2024/02/12 07:30:14;;;;;;;8.20;2.70;;;7.10;99.90;;;;;;5064437;28;20463;-68
2024/02/12 07:32:42;;;;;;;9.03;2.73;;;7.20;99.90;;;;;;5053518;28;20463;-67
2024/02/12 07:35:10;;;;;;;8.97;2.97;;;7.20;99.90;;;;;;5046555;28;20492;-68
2024/02/12 07:37:38;;;;;;;9.80;2.70;;;7.20;99.90;;;;;;5046732;28;20527;-69
2024/02/12 07:40:10;;;;;;;8.83;2.67;;;7.20;99.90;;;;;;5053938;28;20462;-68
2024/02/12 07:42:39;;;;;;;10.87;2.97;;;7.30;99.90;;;;;;5052605;28;21040;-68
2024/02/12 07:45:10;;;;;;;9.83;2.50;;;7.30;99.90;;;;;;5059955;28;20540;-69
2024/02/12 07:47:41;;;;;;;9.13;2.80;;;7.40;99.90;;;;;;5057149;28;20447;-72
2024/02/12 07:50:10;;;;;;;8.33;2.50;;;7.40;99.90;;;;;;5066551;28;20447;-72
2024/02/12 07:52:39;;;;;;;12.47;3.00;;;7.50;99.90;;;;;;5054307;28;20904;-72
2024/02/12 07:55:10;;;;;;;9.30;2.60;;;7.50;99.90;;;;;;5050695;28;20526;-69
2024/02/12 07:57:38;;;;;;;9.00;2.77;;;7.60;99.90;;;;;;5057455;28;20460;-68
2024/02/12 08:00:14;;;;;;;7.90;2.43;;;7.70;99.90;;;;;;5071203;28;20450;-68
2024/02/12 08:02:44;;;;;;;8.97;2.90;;;7.70;99.90;;;;;;5057732;28;20466;-67
2024/02/12 08:05:12;;;;;;;9.20;2.50;;;7.70;99.90;;;;;;5066071;28;20441;-69
2024/02/12 08:07:40;;;;;;;10.23;2.87;;;7.80;99.90;;;;;;5059555;28;20472;-69
2024/02/12 08:10:28;;;;;;;9.73;2.67;;;7.80;99.90;;;;;;5059800;28;20466;-69
2024/02/12 08:12:56;;;;;;;8.50;2.60;;;7.80;99.90;;;;;;5048921;28;20547;-66
2024/02/12 08:15:24;;;;;;;8.30;2.20;;;7.90;99.90;;;;;;5062352;28;20493;-68
2024/02/12 08:17:54;;;;;;;8.90;2.50;;;8.10;99.90;;;;;;5065711;28;20552;-69
2024/02/12 08:20:24;;;;;;;7.80;2.80;;;8.10;99.90;;;;;;5063821;28;20450;-69
2024/02/12 08:22:54;;;;;;;9.13;2.33;;;8.20;99.90;;;;;;5058944;28;21041;-69
2024/02/12 08:25:22;;;;;;;9.90;2.03;;;8.20;99.90;;;;;;5061567;28;21111;-69
2024/02/12 08:27:50;;;;;;;7.43;2.10;;;8.10;99.90;;;;;;5065059;28;20463;-69
2024/02/12 08:30:18;;;;;;;9.87;2.03;;;8.20;99.90;;;;;;5062005;28;20508;-70
2024/02/12 08:32:46;;;;;;;7.77;1.90;;;8.30;99.90;;;;;;5068891;28;20464;-69
2024/02/12 08:35:16;;;;;;;7.80;2.10;;;8.40;99.90;;;;;;5060915;28;20502;-68
2024/02/12 08:37:44;;;;;;;8.60;2.20;;;8.50;99.90;;;;;;5063140;28;20537;-69
2024/02/12 08:40:15;;;;;;;10.60;2.30;;;8.60;99.90;;;;;;5069867;28;20540;-69
2024/02/12 08:42:45;;;;;;;7.50;1.87;;;8.70;99.90;;;;;;5069217;28;20469;-70
2024/02/12 08:45:14;;;;;;;7.57;1.87;;;8.80;99.90;;;;;;5069170;28;21010;-69
2024/02/12 08:47:42;;;;;;;7.47;1.53;;;8.80;99.90;;;;;;5068956;28;21000;-71
2024/02/12 08:50:11;;;;;;;7.47;1.53;;;8.80;99.90;;;;;;5062630;28;20462;-67
2024/02/12 08:52:41;;;;;;;7.00;1.17;;;9.00;99.90;;;;;;5061188;28;20927;-70
2024/02/12 08:55:10;;;;;;;6.97;1.30;;;9.10;99.90;;;;;;5061954;28;20993;-69
2024/02/12 08:57:41;;;;;;;8.50;1.50;;;9.20;99.90;;;;;;5062505;28;20469;-68
2024/02/12 09:00:10;;;;;;;7.10;1.20;;;9.30;99.90;;;;;;5062433;28;20441;-69
2024/02/12 09:02:41;;;;;;;7.60;1.30;;;9.50;99.90;;;;;;5069789;28;20485;-69
2024/02/12 09:05:10;;;;;;;6.70;1.20;;;9.70;99.90;;;;;;5053022;28;20471;-68
2024/02/12 09:07:43;;;;;;;7.47;1.30;;;9.70;99.90;;;;;;5062311;28;20445;-70
2024/02/12 09:10:13;;;;;;;6.07;0.83;;;9.70;99.90;;;;;;5062909;28;20481;-71
2024/02/12 09:12:42;;;;;;;6.77;1.10;;;9.80;99.90;;;;;;5061680;28;20884;-69
2024/02/12 09:15:14;;;;;;;6.90;1.33;;;9.80;99.90;;;;;;5053682;28;20439;-68
2024/02/12 09:17:45;;;;;;;6.47;1.00;;;9.80;99.90;;;;;;5052008;28;21139;-69
2024/02/12 09:20:14;;;;;;;6.37;1.13;;;9.80;99.90;;;;;;5069792;28;20476;-70
2024/02/12 09:22:44;;;;;;;7.10;0.90;;;9.80;99.90;;;;;;5069705;28;20862;-69
2024/02/12 09:25:13;;;;;;;7.00;1.00;;;9.80;99.90;;;;;;5058686;28;20983;-70
2024/02/12 09:27:45;;;;;;;6.33;0.90;;;9.80;99.90;;;;;;5065486;28;20501;-69
2024/02/12 09:30:16;;;;;;;6.97;1.30;;;9.80;99.90;;;;;;5066933;28;21141;-67
2024/02/12 09:32:44;;;;;;;7.60;1.50;;;9.60;99.90;;;;;;5068208;28;20460;-69
2024/02/12 09:35:15;;;;;;;6.33;1.17;;;9.60;99.90;;;;;;5070145;28;20456;-70
2024/02/12 09:37:46;;;;;;;7.17;1.10;;;9.60;99.90;;;;;;5065579;28;20488;-70
2024/02/12 09:40:15;;;;;;;6.60;1.20;;;9.60;99.90;;;;;;5068678;28;20464;-71
2024/02/12 09:42:44;;;;;;;7.60;1.10;;;9.60;99.90;;;;;;5063385;28;20470;-70
2024/02/12 09:45:13;;;;;;;6.33;1.00;;;9.80;99.90;;;;;;5048721;28;21030;-68
2024/02/12 09:47:43;;;;;;;7.50;1.13;;;9.90;99.90;;;;;;5057684;28;20453;-69
2024/02/12 09:50:12;;;;;;;6.57;1.07;;;10.10;99.90;;;;;;5063592;28;20468;-67
2024/02/12 09:52:45;;;;;;;6.40;1.00;;;10.10;99.90;;;;;;5055477;28;20512;-68
2024/02/12 09:55:14;;;;;;;6.53;1.10;;;10.20;99.90;;;;;;5060193;28;20458;-68
2024/02/12 09:57:43;;;;;;;6.40;1.17;;;10.10;99.90;;;;;;5064744;28;20983;-69
2024/02/12 10:00:13;;;;;;;7.80;1.30;;;10.00;99.90;;;;;;5051545;28;20463;-69
2024/02/12 10:02:41;;;;;;;6.93;1.30;;;9.90;99.90;;;;;;5055021;28;20469;-69
2024/02/12 10:05:11;;;;;;;7.20;1.57;;;9.90;99.90;;;;;;5056042;28;20465;-71
2024/02/12 10:07:40;;;;;;;6.83;1.37;;;9.80;99.90;;;;;;5056380;28;20448;-69
2024/02/12 10:10:12;;;;;;;7.20;1.40;;;9.70;99.90;;;;;;5052091;28;20457;-70
2024/02/12 10:12:41;;;;;;;7.00;1.30;;;9.70;99.90;;;;;;5049772;28;20569;-69
2024/02/12 10:15:13;;;;;;;6.40;1.10;;;9.70;99.90;;;;;;5062563;28;20445;-71
2024/02/12 10:17:42;;;;;;;7.30;1.40;;;9.80;99.90;;;;;;5056024;28;20508;-71
2024/02/12 10:20:11;;;;;;;8.73;1.50;;;9.70;99.90;;;;;;5057415;28;20445;-72
2024/02/12 10:22:40;;;;;;;8.80;1.30;;;9.70;99.90;;;;;;5050861;28;20473;-70
2024/02/12 10:25:10;;;;;;;7.03;1.20;;;9.70;99.90;;;;;;5047532;28;20445;-68
2024/02/12 10:27:38;;;;;;;6.73;1.67;;;9.80;99.90;;;;;;5052714;28;20450;-69
2024/02/12 10:30:08;;;;;;;9.30;1.43;;;9.90;99.90;;;;;;5049363;28;20531;-69
2024/02/12 10:32:37;;;;;;;6.60;1.37;;;10.00;99.90;;;;;;5048887;28;20463;-68
2024/02/12 10:35:12;;;;;;;9.00;1.63;;;10.20;99.90;;;;;;5051909;28;20443;-69
2024/02/12 10:37:40;;;;;;;6.70;1.50;;;10.30;99.90;;;;;;5059513;28;20885;-69
2024/02/12 10:40:16;;;;;;;7.27;1.73;;;10.50;99.90;;;;;;5059506;28;20471;-70
2024/02/12 10:42:49;;;;;;;7.00;1.70;;;10.70;99.90;;;;;;5053237;28;21163;-71
2024/02/12 10:45:18;;;;;;;7.67;1.60;;;10.90;99.90;;;;;;5054258;28;20515;-69
2024/02/12 10:47:47;;;;;;;8.20;1.80;;;11.10;99.90;;;;;;5050800;28;20873;-70
2024/02/12 10:50:17;;;;;;;7.73;1.60;;;11.30;99.90;;;;;;5051657;28;21600;-70
2024/02/12 10:52:49;;;;;;;8.20;1.80;;;11.40;99.90;;;;;;5050349;28;20550;-71
2024/02/12 10:55:19;;;;;;;7.80;2.70;;;11.40;99.90;;;;;;5051509;28;20438;-73
2024/02/12 10:57:48;;;;;;;9.67;1.77;;;11.10;99.90;;;;;;5052843;28;20482;-70
2024/02/12 11:00:23;;;;;;;10.30;2.10;;;10.80;99.90;;;;;;5054366;28;21007;-74
2024/02/12 11:02:54;;;;;;;8.00;1.80;;;10.30;99.90;;;;;;5054331;28;20450;-69
2024/02/12 11:05:22;;;;;;;7.10;1.87;;;10.00;99.90;;;;;;5053435;28;20445;-72
2024/02/12 11:08:03;;;;;;;6.77;1.43;;;9.80;99.90;;;;;;5056006;28;20528;-71
2024/02/12 11:10:35;;;;;;;8.03;1.67;;;9.60;99.90;;;;;;5056873;28;21015;-70
2024/02/12 11:13:09;;;;;;;8.10;1.70;;;9.50;99.90;;;;;;5055900;28;20916;-71
2024/02/12 11:15:37;;;;;;;8.00;1.67;;;9.40;99.90;;;;;;5058391;28;20538;-69
2024/02/12 11:18:13;;;;;;;7.10;1.50;;;9.50;99.90;;;;;;5058938;28;20833;-72
2024/02/12 11:20:49;;;;;;;7.73;1.60;;;9.70;99.90;;;;;;5053470;28;20618;-67
2024/02/12 11:23:22;;;;;;;9.30;1.70;;;9.70;99.90;;;;;;5055315;28;20886;-69
2024/02/12 11:25:54;;;;;;;8.73;2.03;;;9.90;99.90;;;;;;5054713;28;21048;-69
2024/02/12 11:28:24;;;;;;;9.00;1.77;;;10.00;99.90;;;;;;5058663;28;20527;-70
2024/02/12 11:30:53;;;;;;;8.37;1.83;;;10.20;99.90;;;;;;5052210;28;20460;-69
2024/02/12 11:33:25;;;;;;;10.10;2.00;;;10.20;99.90;;;;;;5055933;28;20483;-71
2024/02/12 11:36:06;;;;;;;9.10;1.40;;;10.10;99.90;;;;;;5058515;28;20445;-68
2024/02/12 11:38:37;;;;;;;8.17;1.60;;;10.20;99.90;;;;;;5057962;28;21298;-71
2024/02/12 11:41:06;;;;;;;8.80;1.40;;;10.20;99.90;;;;;;5055797;28;20441;-72
2024/02/12 11:43:35;;;;;;;7.90;1.47;;;10.30;99.90;;;;;;5054912;28;21406;-73
2024/02/12 11:46:03;;;;;;;7.37;1.57;;;10.30;99.90;;;;;;5055031;28;20527;-71
2024/02/12 11:48:31;;;;;;;7.87;1.60;;;10.30;99.90;;;;;;5055587;28;20968;-69
2024/02/12 11:50:59;;;;;;;7.23;1.63;;;10.30;99.90;;;;;;5055594;28;20526;-70
2024/02/12 11:53:27;;;;;;;8.73;1.47;;;10.20;99.90;;;;;;5056462;28;20873;-70
2024/02/12 11:55:55;;;;;;;7.40;1.40;;;10.10;99.90;;;;;;5052834;28;20459;-70
2024/02/12 11:58:26;;;;;;;6.20;1.10;;;10.20;99.90;;;;;;5053607;28;20579;-73
2024/02/12 12:00:57;;;;;;;7.00;1.47;;;10.10;99.90;;;;;;5053282;28;21150;-71
2024/02/12 12:03:25;;;;;;;7.90;1.47;;;10.10;99.90;;;;;;5050332;28;20489;-71
2024/02/12 12:05:55;;;;;;;6.90;1.50;;;10.10;99.90;;;;;;5045863;28;20446;-73
2024/02/12 12:08:24;;;;;;;8.30;1.30;;;10.10;99.90;;;;;;5048831;28;20445;-71
2024/02/12 12:10:52;;;;;;;7.00;1.47;;;10.10;99.90;;;;;;5046952;28;20489;-73
2024/02/12 12:13:21;;;;;;;8.10;1.30;;;10.20;99.90;;;;;;5050331;28;20463;-71
2024/02/12 12:15:53;;;;;;;7.03;1.00;;;10.20;99.90;;;;;;5052625;28;20459;-73
2024/02/12 12:18:21;;;;;;;6.97;1.20;;;10.20;99.90;;;;;;5052538;28;20514;-71
2024/02/12 12:20:49;;;;;;;8.63;1.30;;;10.20;99.90;;;;;;5057133;28;20448;-74
2024/02/12 12:23:18;;;;;;;10.67;1.53;;;10.10;99.90;;;;;;5055136;28;20461;-70
2024/02/12 12:25:49;;;;;;;8.60;1.00;;;10.10;99.90;;;;;;5055538;28;20531;-71
2024/02/12 12:28:17;;;;;;;8.30;1.40;;;10.10;99.90;;;;;;5056211;28;20928;-71
2024/02/12 12:30:45;;;;;;;7.20;1.10;;;10.20;99.90;;;;;;5056718;28;20444;-70
2024/02/12 12:33:15;;;;;;;9.27;3.70;;;10.30;99.90;;;;;;5059121;28;20553;-71
2024/02/12 12:35:43;;;;;;;8.03;1.27;;;10.40;99.90;;;;;;5059365;28;20466;-69
2024/02/12 12:38:14;;;;;;;6.90;1.30;;;10.40;99.90;;;;;;5054604;28;21020;-69
2024/02/12 12:40:43;;;;;;;8.50;1.20;;;10.40;99.90;;;;;;5054558;28;20445;-74
2024/02/12 12:43:11;;;;;;;6.50;1.10;;;10.40;99.90;;;;;;5052796;28;20498;-70
2024/02/12 12:45:42;;;;;;;8.07;1.73;;;10.40;99.90;;;;;;5055076;28;20427;-71
2024/02/12 12:48:11;;;;;;;9.03;1.30;;;10.50;99.90;;;;;;5055085;28;20439;-74
2024/02/12 12:50:43;;;;;;;7.10;1.50;;;10.50;99.90;;;;;;5051104;28;20426;-71
2024/02/12 12:53:28;;;;;;;426.47;91.27;;;10.60;99.90;;;;;;5050524;28;20459;-71
2024/02/12 12:55:57;;;;;;;15.50;4.00;;;10.90;99.90;;;;;;5051860;28;20447;-70
2024/02/12 12:58:25;;;;;;;6.90;1.40;;;11.00;99.90;;;;;;5050464;28;20483;-72
2024/02/12 13:00:53;;;;;;;8.10;1.40;;;11.20;99.90;;;;;;5052480;28;20476;-73
2024/02/12 13:03:22;;;;;;;6.80;1.27;;;11.20;99.90;;;;;;5054810;28;20542;-71
2024/02/12 13:05:52;;;;;;;7.20;1.10;;;11.20;99.90;;;;;;5056335;28;20446;-70
2024/02/12 13:08:22;;;;;;;6.77;1.20;;;11.30;99.90;;;;;;5055429;28;20431;-71
2024/02/12 13:10:51;;;;;;;6.73;0.97;;;11.30;99.90;;;;;;5053277;28;20437;-70
2024/02/12 13:13:21;;;;;;;7.27;1.00;;;11.30;99.90;;;;;;5054385;28;21018;-71
2024/02/12 13:15:50;;;;;;;7.10;1.30;;;11.30;99.90;;;;;;5054726;28;20857;-69
2024/02/12 13:18:26;;;;;;;7.07;1.17;;;11.20;99.90;;;;;;5061602;28;20895;-71
2024/02/12 13:20:56;;;;;;;8.70;1.73;;;11.00;99.90;;;;;;5061757;28;20438;-70